L Ar Voaleden — FIMJ — position and weather

sailwx.info

Track history (hours):
 
Tides and Currents Weather Stations Pressure Air Temp Water Temp Dewpoint Dewpoint Depression Visibility Wind Speed Wind Dir Waves Ship Positions

L Ar Voaleden

Last reported at 2017-Sep-22 00:24 UTC. Time now 2017-Sep-23 04:08 UTC.
Position N 47°49' W 004°23'.

Length 23 m; draft 3.6 m.

Type: Fishing. MMSI: 226178000.

Date/timePositionNaut miles runAvg speedWind from/ knotsBaromVisibWave heightAir tempDewpointWater temp
2017-Sep-22 00:24N 47°49' W 004°23'0 0.0
2017-Sep-21 23:54N 47°49' W 004°23'0 0.0
2017-Sep-21 02:03N 47°49' W 004°23'0 0.0
2017-Sep-21 01:53N 47°49' W 004°23'0 0.0
2017-Sep-20 17:23N 47°49' W 004°23'0 0.0
2017-Sep-19 13:38N 47°49' W 004°23'5 7.2
2017-Sep-19 12:53N 47°50' W 004°31'510.3
2017-Sep-19 12:23N 47°52' W 004°38'410.0
2017-Sep-19 12:00N 47°53' W 004°43'5 9.4
2017-Sep-19 11:30N 47°55' W 004°50'4 8.6
2017-Sep-19 11:00N 47°56' W 004°56'5 9.2
2017-Sep-19 10:31N 47°56' W 005°03'8 9.6
2017-Sep-19 09:39N 47°57' W 005°15'7 9.1
2017-Sep-19 08:53N 47°59' W 005°25'12 9.8
2017-Sep-19 07:38N 48°03' W 005°43'  
2017-Sep-12 22:57N 51°07' W 009°43'3 7.7
2017-Sep-12 22:30N 51°07' W 009°37'4 7.4
2017-Sep-12 22:00N 51°07' W 009°32'4 7.0
2017-Sep-12 21:30N 51°07' W 009°26'3 6.7
2017-Sep-12 21:01N 51°07' W 009°21'3 6.1
2017-Sep-12 20:30N 51°07' W 009°16'3 6.1
2017-Sep-12 20:00N 51°07' W 009°11'3 5.9
2017-Sep-12 19:30N 51°07' W 009°06'31 3.1
2017-Sep-12 09:34N 51°13' W 008°18'0 2.8
2017-Sep-12 09:30N 51°13' W 008°18'3 2.7
2017-Sep-12 08:23N 51°14' W 008°13'1 2.6
2017-Sep-12 08:00N 51°14' W 008°11'0 0.6
2017-Sep-12 07:30N 51°13' W 008°11'  
Track history (hours):
 
Tides and Currents Weather Stations Pressure Air Temp Water Temp Dewpoint Dewpoint Depression Visibility Wind Speed Wind Dir Waves Ship Positions

L Ar Voaleden

Last reported at 2017-Sep-22 00:24 UTC. Time now 2017-Sep-23 04:08 UTC.
Position N 47°49' W 004°23'.

Length 23 m; draft 3.6 m.

Type: Fishing. MMSI: 226178000.

Date/timePositionNaut miles runAvg speedWind from/ knotsBaromVisibWave heightAir tempDewpointWater temp
2017-Sep-22 00:24N 47°49' W 004°23'0 0.0
2017-Sep-21 23:54N 47°49' W 004°23'0 0.0
2017-Sep-21 02:03N 47°49' W 004°23'0 0.0
2017-Sep-21 01:53N 47°49' W 004°23'0 0.0
2017-Sep-20 17:23N 47°49' W 004°23'0 0.0
2017-Sep-19 13:38N 47°49' W 004°23'5 7.2
2017-Sep-19 12:53N 47°50' W 004°31'510.3
2017-Sep-19 12:23N 47°52' W 004°38'410.0
2017-Sep-19 12:00N 47°53' W 004°43'5 9.4
2017-Sep-19 11:30N 47°55' W 004°50'4 8.6
2017-Sep-19 11:00N 47°56' W 004°56'5 9.2
2017-Sep-19 10:31N 47°56' W 005°03'8 9.6
2017-Sep-19 09:39N 47°57' W 005°15'7 9.1
2017-Sep-19 08:53N 47°59' W 005°25'12 9.8
2017-Sep-19 07:38N 48°03' W 005°43'  
2017-Sep-12 22:57N 51°07' W 009°43'3 7.7
2017-Sep-12 22:30N 51°07' W 009°37'4 7.4
2017-Sep-12 22:00N 51°07' W 009°32'4 7.0
2017-Sep-12 21:30N 51°07' W 009°26'3 6.7
2017-Sep-12 21:01N 51°07' W 009°21'3 6.1
2017-Sep-12 20:30N 51°07' W 009°16'3 6.1
2017-Sep-12 20:00N 51°07' W 009°11'3 5.9
2017-Sep-12 19:30N 51°07' W 009°06'31 3.1
2017-Sep-12 09:34N 51°13' W 008°18'0 2.8
2017-Sep-12 09:30N 51°13' W 008°18'3 2.7
2017-Sep-12 08:23N 51°14' W 008°13'1 2.6
2017-Sep-12 08:00N 51°14' W 008°11'0 0.6
2017-Sep-12 07:30N 51°13' W 008°11'  

Dump ship's entire track history